createdAt,value
2023-01-21T00:04:47.990Z,22.77
2023-01-21T00:09:54.225Z,23.87
2023-01-21T00:14:58.712Z,22.67
2023-01-21T00:20:01.738Z,23.27
2023-01-21T00:25:05.161Z,24.40
2023-01-21T00:30:11.216Z,21.97
2023-01-21T00:35:14.534Z,22.73
2023-01-21T00:40:18.359Z,24.03
2023-01-21T00:45:22.978Z,25.37
2023-01-21T00:50:26.021Z,24.50
2023-01-21T00:55:29.117Z,24.33
2023-01-21T01:00:33.813Z,23.93
2023-01-21T01:05:37.276Z,23.33
2023-01-21T01:10:40.290Z,23.50
2023-01-21T01:15:45.004Z,23.80
2023-01-21T01:20:48.114Z,25.23
2023-01-21T01:25:58.655Z,23.67
2023-01-21T01:31:06.104Z,22.57
2023-01-21T01:36:13.573Z,24.43
2023-01-21T01:41:21.639Z,24.27
2023-01-21T01:46:27.480Z,23.17
2023-01-21T01:51:40.015Z,23.37
2023-01-21T01:56:46.465Z,21.97
2023-01-21T02:01:51.581Z,22.17
2023-01-21T02:06:56.991Z,24.50
2023-01-21T02:12:02.100Z,23.83
2023-01-21T02:17:23.287Z,21.23
2023-01-21T02:22:33.246Z,22.33
2023-01-21T02:27:47.856Z,22.00
2023-01-21T02:33:27.280Z,21.20
2023-01-21T02:38:39.376Z,22.00
2023-01-21T02:43:51.557Z,21.93
2023-01-21T02:49:00.639Z,21.07
2023-01-21T02:54:16.230Z,22.10
2023-01-21T02:59:19.798Z,21.40
2023-01-21T03:04:44.443Z,20.03
2023-01-21T03:09:49.649Z,19.33
2023-01-21T03:15:19.472Z,22.07
2023-01-21T03:20:27.133Z,21.13
2023-01-21T03:25:34.614Z,20.00
2023-01-21T03:30:41.582Z,20.77
2023-01-21T03:35:47.863Z,21.47
2023-01-21T03:40:56.292Z,19.73
2023-01-21T03:46:05.730Z,20.13
2023-01-21T03:51:14.084Z,21.03
2023-01-21T03:56:18.460Z,20.20
2023-01-21T04:01:22.974Z,20.10
2023-01-21T04:06:26.032Z,20.20
2023-01-21T04:11:30.479Z,20.40
2023-01-21T04:16:33.587Z,21.87
2023-01-21T04:21:36.910Z,20.67
2023-01-21T04:26:41.385Z,19.60
2023-01-21T04:31:44.694Z,20.80
2023-01-21T04:36:48.093Z,20.13
2023-01-21T04:41:52.549Z,20.33
2023-01-21T04:46:55.637Z,20.97
2023-01-21T04:51:58.664Z,21.70
2023-01-21T04:57:03.049Z,19.80
2023-01-21T05:02:05.982Z,20.93
2023-01-21T05:07:09.363Z,22.40
2023-01-21T05:12:13.876Z,20.63
2023-01-21T05:17:16.888Z,19.60
2023-01-21T05:22:20.325Z,20.77
2023-01-21T05:27:24.891Z,21.30
2023-01-21T05:32:27.799Z,20.23
2023-01-21T05:37:30.756Z,19.80
2023-01-21T05:42:35.259Z,21.07
2023-01-21T05:47:38.418Z,21.90
2023-01-21T05:52:41.423Z,20.37
2023-01-21T05:57:45.803Z,21.63
2023-01-21T06:02:48.823Z,20.43
2023-01-21T06:07:53.011Z,20.00
2023-01-21T06:12:58.073Z,21.47
2023-01-21T06:18:01.249Z,20.20
2023-01-21T06:23:04.491Z,22.43
2023-01-21T06:28:10.316Z,21.80
2023-01-21T06:33:13.293Z,22.20
2023-01-21T06:38:16.513Z,23.47
2023-01-21T06:43:21.034Z,23.50
2023-01-21T06:48:25.054Z,25.10
2023-01-21T06:53:28.213Z,22.73
2023-01-21T06:58:32.575Z,21.60
2023-01-21T07:03:35.634Z,22.27
2023-01-21T07:08:38.674Z,22.87
2023-01-21T07:13:43.098Z,21.67
2023-01-21T07:18:46.114Z,22.40
2023-01-21T07:23:49.398Z,22.20
2023-01-21T07:28:56.509Z,22.00
2023-01-21T07:33:59.611Z,23.13
2023-01-21T07:39:02.933Z,21.37
2023-01-21T07:44:07.368Z,23.53
2023-01-21T07:49:12.943Z,24.03
2023-01-21T07:54:16.730Z,26.77
2023-01-21T07:59:23.864Z,25.40
2023-01-21T08:04:27.150Z,29.03
2023-01-21T08:09:30.318Z,30.83
2023-01-21T08:14:34.974Z,25.90
2023-01-21T08:19:38.196Z,28.57
2023-01-21T08:24:41.280Z,25.63
2023-01-21T08:29:46.883Z,33.17
2023-01-21T08:34:53.819Z,37.57
2023-01-21T08:39:56.875Z,31.17
2023-01-21T08:45:01.388Z,37.33
2023-01-21T08:50:05.385Z,35.73
2023-01-21T08:55:08.966Z,30.90
2023-01-21T09:00:15.580Z,38.83
2023-01-21T09:05:19.373Z,29.53
2023-01-21T09:10:41.622Z,28.80
2023-01-21T09:15:46.179Z,27.53
2023-01-21T09:20:49.418Z,37.47
2023-01-21T09:25:53.076Z,36.00
2023-01-21T09:30:59.306Z,29.00
2023-01-21T09:36:05.513Z,26.73
2023-01-21T09:41:20.268Z,29.10
2023-01-21T09:46:35.580Z,28.00
2023-01-21T09:51:47.913Z,28.63
2023-01-21T09:57:01.599Z,26.37
2023-01-21T10:02:15.707Z,31.77
2023-01-21T10:07:25.111Z,30.03
2023-01-21T10:12:43.715Z,29.63
2023-01-21T10:17:58.120Z,29.73
2023-01-21T10:23:06.619Z,25.70
2023-01-21T10:28:15.637Z,26.93
2023-01-21T10:33:24.036Z,26.67
2023-01-21T10:38:38.779Z,27.03
2023-01-21T10:43:48.679Z,25.87
2023-01-21T10:48:58.089Z,25.70
2023-01-21T10:54:07.301Z,25.50
2023-01-21T10:59:15.081Z,24.13
2023-01-21T11:04:25.501Z,23.27
2023-01-21T11:09:32.649Z,24.03
2023-01-21T11:14:35.941Z,25.27
2023-01-21T11:19:40.609Z,24.53
2023-01-21T11:24:45.788Z,23.77
2023-01-21T11:29:50.221Z,25.00
2023-01-21T11:35:05.001Z,25.60
2023-01-21T11:40:17.282Z,26.37
2023-01-21T11:45:29.038Z,25.87
2023-01-21T11:50:35.446Z,27.50
2023-01-21T11:55:41.652Z,27.27
2023-01-21T12:00:47.524Z,28.63
2023-01-21T12:05:54.346Z,26.90
2023-01-21T12:11:02.130Z,24.73
2023-01-21T12:16:29.092Z,25.17
2023-01-21T12:21:44.838Z,25.93
2023-01-21T12:26:57.641Z,27.40
2023-01-21T12:32:06.086Z,27.20
2023-01-21T12:37:19.281Z,27.40
2023-01-21T12:42:31.651Z,30.23
2023-01-21T12:47:43.490Z,28.20
2023-01-21T12:52:58.320Z,26.97
2023-01-21T12:58:06.012Z,26.57
2023-01-21T13:03:21.227Z,27.30
2023-01-21T13:08:48.625Z,26.03
2023-01-21T13:14:21.063Z,24.67
2023-01-21T13:19:24.528Z,24.20
2023-01-21T13:24:34.669Z,22.80
2023-01-21T13:29:46.896Z,23.87
2023-01-21T13:34:58.624Z,22.90
2023-01-21T13:40:23.191Z,19.50
2023-01-21T13:45:38.587Z,20.07
2023-01-21T13:50:56.651Z,19.83
2023-01-21T13:56:20.417Z,21.60
2023-01-21T14:01:28.165Z,20.33
2023-01-21T14:06:37.696Z,21.27
2023-01-21T14:11:49.452Z,20.13
2023-01-21T14:17:30.308Z,21.93
2023-01-21T14:22:55.029Z,20.03
2023-01-21T14:28:10.088Z,21.93
2023-01-21T14:33:17.120Z,24.77
2023-01-21T14:38:30.058Z,23.87
2023-01-21T14:43:53.591Z,24.63
2023-01-21T14:49:08.395Z,24.77
2023-01-21T14:54:14.880Z,26.47
2023-01-21T14:59:34.415Z,24.47
2023-01-21T15:04:40.236Z,24.53
2023-01-21T15:09:48.310Z,25.03
2023-01-21T15:14:58.242Z,23.43
2023-01-21T15:20:39.822Z,23.27
2023-01-21T15:26:03.521Z,23.40
2023-01-21T15:31:10.588Z,22.77
2023-01-21T15:36:22.334Z,21.93
2023-01-21T15:41:38.237Z,22.03
2023-01-21T15:46:52.442Z,22.53
2023-01-21T15:52:05.791Z,21.37
2023-01-21T15:57:23.501Z,22.10
2023-01-21T16:02:31.950Z,19.60
2023-01-21T16:07:47.000Z,18.40
2023-01-21T16:13:05.753Z,18.80
2023-01-21T16:18:27.114Z,20.23
2023-01-21T16:23:35.276Z,20.53
2023-01-21T16:28:43.402Z,21.33
2023-01-21T16:33:48.306Z,19.60
2023-01-21T16:38:51.672Z,17.53
2023-01-21T16:44:01.273Z,18.27
2023-01-21T16:49:13.376Z,19.23
2023-01-21T16:54:24.274Z,20.40
2023-01-21T16:59:29.456Z,21.40
2023-01-21T17:04:33.968Z,21.80
2023-01-21T17:09:38.089Z,20.27
2023-01-21T17:14:41.612Z,19.17
2023-01-21T17:19:46.160Z,22.07
2023-01-21T17:25:00.907Z,21.67
2023-01-21T17:30:27.900Z,19.67
2023-01-21T17:35:34.077Z,18.73
2023-01-21T17:40:41.177Z,19.30
2023-01-21T17:45:47.023Z,17.77
2023-01-21T17:50:52.644Z,17.03
2023-01-21T17:56:02.209Z,19.40
2023-01-21T18:01:06.040Z,20.07
2023-01-21T18:06:18.370Z,20.70
2023-01-21T18:11:24.486Z,20.17
2023-01-21T18:16:27.562Z,21.93
2023-01-21T18:21:31.976Z,21.20
2023-01-21T18:26:35.170Z,19.70
2023-01-21T18:31:38.883Z,20.43
2023-01-21T18:36:43.771Z,20.17
2023-01-21T18:41:47.584Z,19.03
2023-01-21T18:46:53.383Z,18.03
2023-01-21T18:51:57.871Z,18.60
2023-01-21T18:57:01.243Z,18.47
2023-01-21T19:02:04.556Z,19.40
2023-01-21T19:07:15.112Z,21.30
2023-01-21T19:12:21.133Z,20.20
2023-01-21T19:17:26.946Z,21.07
2023-01-21T19:22:31.556Z,20.37
2023-01-21T19:27:40.031Z,20.93
2023-01-21T19:32:43.503Z,21.63
2023-01-21T19:37:50.227Z,21.90
2023-01-21T19:42:54.282Z,22.47
2023-01-21T19:47:57.669Z,22.67
2023-01-21T19:53:02.018Z,23.10
2023-01-21T19:58:07.922Z,22.57
2023-01-21T20:03:13.072Z,22.40
2023-01-21T20:08:21.875Z,22.60
2023-01-21T20:13:26.177Z,23.70
2023-01-21T20:18:32.588Z,22.33
2023-01-21T20:23:39.010Z,24.20
2023-01-21T20:28:47.737Z,24.30
2023-01-21T20:33:50.775Z,26.50
2023-01-21T20:38:56.070Z,24.20
2023-01-21T20:43:59.309Z,30.97
2023-01-21T20:49:02.609Z,34.83
2023-01-21T20:54:06.972Z,36.40
2023-01-21T20:59:10.853Z,36.27
2023-01-21T21:04:13.873Z,43.93
2023-01-21T21:09:19.609Z,44.37
2023-01-21T21:14:24.290Z,42.27
2023-01-21T21:19:27.354Z,51.90
2023-01-21T21:24:32.258Z,54.87
2023-01-21T21:29:35.320Z,73.43
2023-01-21T21:34:38.334Z,64.80
2023-01-21T21:39:42.829Z,54.63
2023-01-21T21:44:46.158Z,51.93
2023-01-21T21:49:49.225Z,47.83
2023-01-21T21:54:54.930Z,55.47
2023-01-21T21:59:58.044Z,40.97
2023-01-21T22:05:01.172Z,39.00
2023-01-21T22:10:06.586Z,44.10
2023-01-21T22:15:10.746Z,50.97
2023-01-21T22:20:14.188Z,47.87
2023-01-21T22:25:19.019Z,46.17
2023-01-21T22:30:23.022Z,37.03
2023-01-21T22:35:26.010Z,39.63
2023-01-21T22:40:33.975Z,47.60
2023-01-21T22:45:37.191Z,38.50
2023-01-21T22:50:41.293Z,44.53
2023-01-21T22:55:45.637Z,34.47
2023-01-21T23:00:48.825Z,36.77
2023-01-21T23:05:55.012Z,39.60
2023-01-21T23:11:03.097Z,29.67
2023-01-21T23:16:07.715Z,29.17
2023-01-21T23:21:14.953Z,31.60
2023-01-21T23:26:20.322Z,35.53
2023-01-21T23:31:24.298Z,42.87
2023-01-21T23:36:27.611Z,41.27
2023-01-21T23:41:32.037Z,33.07
2023-01-21T23:46:35.520Z,31.53
2023-01-21T23:51:40.200Z,35.37
2023-01-21T23:56:44.578Z,38.00
